Sonic Adventure (DX): Boss Rankings

Records: Times | Rings | Scores | Races | Bosses | Freestyle
Leaders: Times | Rings | Scores | Races | Bosses | Freestyle | Overall
Rank Player Percent Points Date
1 Sonicspeedruner 97.7% 50 08-31-18
2 Gamepro011 96.2% 84 08-31-18
3 chainchumper 94.1% 132 08-31-18
4 DarkPolarNight 93.7% 142 08-31-18
5 Austinf 91.4% 193 08-31-18
6 Jawzun 88.6% 257 08-31-18
7 drminus 88.2% 266 08-31-18
8 ethmar 86.5% 303 08-31-18
9 Parax 86.0% 314 08-31-18
10 ike6252 85.3% 330 08-31-18
11 Coolfansonic 83.7% 366 08-31-18
12 Dashjump 83.4% 374 08-31-18
13 Avento128bits 83.1% 380 08-31-18
14 DarkspinesSonic 79.4% 463 08-31-18
15 TheRealShadnic 77.7% 501 08-31-18
16 THC98 77.2% 513 08-31-18
17 F-Man 75.4% 553 08-31-18
18 Marth 74.4% 577 08-31-18
19 Mariobutch 73.1% 605 08-31-18
20 yoshifan 72.4% 621 08-31-18
21 InferSaime 71.5% 641 08-31-18
22 PfoSonic 71.0% 653 08-31-18
23 HyperSonic7701 69.1% 696 08-31-18
24 RPGnutter 68.2% 717 08-31-18
25 Paragod 66.7% 751 08-31-18
26 Dekuboy 66.3% 759 08-31-18
26 mike89 66.3% 759 08-31-18
28 frankoredstrato 65.9% 769 08-31-18
29 sonicam 61.9% 859 08-31-18
30 Groudon199 61.6% 865 08-31-18
31 SadisticMystic 61.3% 873 08-31-18
32 Stefan 60.1% 898 08-31-18
33 Diamond 58.6% 933 08-31-18
34 Combo 56.5% 980 08-31-18
35 bertin 56.5% 981 08-31-18
36 SkyLights 53.6% 1045 08-31-18
37 xXMegaManXx 53.3% 1052 08-31-18
38 Arch 48.0% 1172 08-31-18
39 Fr3nZy 47.9% 1174 08-31-18
40 francisco 47.9% 1175 08-31-18
41 Andrea Ritsu 45.8% 1222 08-31-18
42 OmegaDJ 45.7% 1225 08-31-18
43 Omega Rafael Santos 44.8% 1244 08-31-18
44 P1 Pause 43.2% 1281 08-31-18
45 VeritasDL 41.0% 1331 08-31-18
46 magnum12 40.8% 1334 08-31-18
47 Cyan Ryan 38.9% 1377 08-31-18
48 Auriman1 37.1% 1417 08-31-18
49 James_Bertolli 35.3% 1459 08-31-18
50 chaos shadow 35.1% 1464 08-31-18
51 Hunters13 34.3% 1482 08-31-18
52 Psymar 33.5% 1500 08-31-18
53 teamblackarms 33.2% 1505 08-31-18
54 FuzZerd 33.0% 1510 08-31-18
55 Drakodan 32.4% 1523 08-31-18
56 Niczur 31.6% 1543 08-31-18
57 Quartz 31.4% 1547 08-31-18
58 CoEmpathy 31.0% 1556 08-31-18
59 eggFL 30.8% 1561 08-31-18
60 Jerzia 30.4% 1569 08-31-18
61 GerbilSoft 30.2% 1573 08-31-18
62 BigAL49 30.1% 1576 08-31-18
63 elecmouse101 29.5% 1590 08-31-18
64 Webber3000 29.2% 1595 08-31-18
65 Thorn 29.2% 1597 08-31-18
66 Nim 29.0% 1600 08-31-18
67 videogamemaster777 28.9% 1604 08-31-18
68 Mo Player Banned 27.8% 1628 08-31-18
69 Turbos 27.4% 1637 08-31-18
70 Termon 26.6% 1654 08-31-18
71 Dave Cramer 25.6% 1678 08-31-18
72 Flying Fox 25.3% 1683 08-31-18
73 nuckrieg 24.4% 1704 08-31-18
74 buddychaos0415 24.1% 1711 08-31-18
75 Shadow Jacky 23.1% 1734 08-31-18
76 N 21.0% 1780 08-31-18
77 Cream147 20.9% 1783 08-31-18
78 supersonicfan 20.5% 1792 08-31-18
79 MiStEr_ShAoLiN 20.3% 1796 08-31-18
80 NintenDan 20.3% 1798 08-31-18
81 thewaytodawnnn 20.2% 1800 08-31-18
82 itsPersonnal 19.9% 1805 08-31-18
83 Aitamen 19.9% 1807 08-31-18
84 Cybrax 19.6% 1813 08-31-18
85 The T 19.5% 1815 08-31-18
86 supersonic465 19.4% 1818 08-31-18
87 SonicWinDX 19.3% 1820 08-31-18
88 Cruizer 18.3% 1842 08-31-18
89 VMU Player Banned 17.1% 1868 08-31-18
90 Game_Complete 17.0% 1872 08-31-18
91 Mastakirby 16.4% 1885 08-31-18
92 The Great Lord Mick 16.2% 1889 08-31-18
93 Questionguy555 15.5% 1906 08-31-18
94 GreatStar 15.3% 1910 08-31-18
95 Spinballwizard 14.8% 1922 08-31-18
96 Sondow 14.1% 1936 08-31-18
97 Destroyer121121 13.9% 1942 08-31-18
97 sonicandamy Player Banned 13.9% 1942 08-31-18
99 R3FR4G 13.1% 1959 08-31-18
100 GarnetPrincess 12.9% 1963 08-31-18
101 SonicAD 11.8% 1989 08-31-18
102 Don 11.1% 2004 08-31-18
103 Miles9999 10.8% 2011 08-31-18
104 SuperBlitzCraig 10.7% 2013 08-31-18
105 Siavash Tazari 10.5% 2017 08-31-18
106 Psyknux 10.0% 2030 08-31-18
107 Cutiefox 9.8% 2033 08-31-18
108 knuckles_sonic8 9.5% 2041 08-31-18
109 Werey 9.4% 2043 08-31-18
110 joecoolgames 9.3% 2045 08-31-18
111 mauserman 9.0% 2052 08-31-18
112 Badlex727 8.8% 2056 08-31-18
113 Sonic Singularity 8.7% 2058 08-31-18
114 EngiNerd 8.6% 2061 08-31-18
115 dShadow 8.1% 2072 08-31-18
115 Hipertails12 8.1% 2072 08-31-18
117 Aiko 7.8% 2078 08-31-18
118 Shanekilz 7.8% 2079 08-31-18
119 Therio 7.4% 2087 08-31-18
120 ArthurVGCP 7.1% 2095 08-31-18
121 Calfd 6.8% 2101 08-31-18
122 TommyeAsY 6.8% 2102 08-31-18
123 FocusSight64 6.7% 2104 08-31-18
124 sonic29887 6.6% 2106 08-31-18
125 TheChaosEmeraIds 6.6% 2107 08-31-18
126 Chao_Fan 6.2% 2114 08-31-18
127 djmat 6.0% 2120 08-31-18
128 HHNNBBHHN 5.7% 2127 08-31-18
128 tal39h 5.7% 2127 08-31-18
130 paulie9990 5.5% 2130 08-31-18
130 Sogeking 5.5% 2130 08-31-18
132 ModifiedMonkee 5.3% 2136 08-31-18
133 Brian_pso 4.8% 2146 08-31-18
134 Chawkk 4.8% 2147 08-31-18
135 SpinDashMaster 4.6% 2152 08-31-18
136 MK 4.5% 2154 08-31-18
137 SilvertheAlmighty 4.3% 2158 08-31-18
138 Crispian 4.2% 2161 08-31-18
139 MastaToken 4.0% 2164 08-31-18
140 Sonique Hedgehog 3.8% 2170 08-31-18
140 SpiritDragon1995 3.8% 2170 08-31-18
142 KinkyCadence 3.5% 2177 08-31-18
142 PsyBorg 3.5% 2177 08-31-18
144 Mad Andy 3.3% 2180 08-31-18
145 FSSRandomvids 3.3% 2181 08-31-18
146 koinu93 2.9% 2190 08-31-18
147 Rolken 2.8% 2192 08-31-18
148 JamminX42 2.7% 2193 08-31-18
149 Xia 2.7% 2194 08-31-18
150 andres430 2.4% 2200 08-31-18
151 shadowblast63 Player Banned 2.2% 2205 08-31-18
152 dabestgamer 2.1% 2208 08-31-18
153 crazy1993 2.0% 2209 08-31-18
154 Illidan 1.9% 2212 08-31-18
155 Richied 1.8% 2214 08-31-18
156 gamer1245 1.7% 2217 08-31-18
157 DanielTheFalcon 1.6% 2218 08-31-18
158 Iwannabelink 1.6% 2219 08-31-18
159 oTaiIilLsS 1.3% 2225 08-31-18
159 soniccoloursunleashed 1.3% 2225 08-31-18
161 niscool 1.3% 2226 08-31-18
162 ieatatsonic 1.0% 2232 08-31-18
162 Redd 1.0% 2232 08-31-18
164 Lil_Dude 0.7% 2238 08-31-18
164 LinksDarkArrows 0.7% 2238 08-31-18
166 Cbwade15 0.4% 2245 08-31-18
167 neaolas 0.3% 2248 08-31-18
168 BlankTH 0.2% 2251 08-31-18
169 Heroes_Hater 0.1% 2252 08-31-18
170 S-MS32X-S 0.0% 2254 08-31-18
171 KaM Mark MaK 0.0% 2256 08-31-18
171 MegabombBlade 0.0% 2256 08-31-18

This page is using the New Data Table System. [FUTURE]

Game ID: 3 | Category ID: 6
Hits: 4,936 | Hits This Month: 12 | DB Calls: 24 | Mem Usage: 5.55 MB | Time: 0.20s | Printable

The Sonic Center v3.9
Copyright 2003-2011 by The Sonic Center Team.